sensor_id;sensor_type;location;lat;lon;timestamp;temperature;humidity
26537;DHT22;14204;51.262;5.488;2022-10-22T00:00:17;14.50;99.90
26537;DHT22;14204;51.262;5.488;2022-10-22T00:02:43;14.50;99.90
26537;DHT22;14204;51.262;5.488;2022-10-22T00:05:09;14.50;99.90
26537;DHT22;14204;51.262;5.488;2022-10-22T00:07:35;14.50;99.90
26537;DHT22;14204;51.262;5.488;2022-10-22T00:10:02;14.40;99.90
26537;DHT22;14204;51.262;5.488;2022-10-22T00:12:28;14.40;99.90
26537;DHT22;14204;51.262;5.488;2022-10-22T00:14:53;14.40;99.90
26537;DHT22;14204;51.262;5.488;2022-10-22T00:17:19;14.30;99.90
26537;DHT22;14204;51.262;5.488;2022-10-22T00:19:45;14.40;99.90
26537;DHT22;14204;51.262;5.488;2022-10-22T00:22:11;14.40;99.90
26537;DHT22;14204;51.262;5.488;2022-10-22T00:24:37;14.30;99.90
26537;DHT22;14204;51.262;5.488;2022-10-22T00:27:05;14.30;99.90
26537;DHT22;14204;51.262;5.488;2022-10-22T00:29:31;14.30;99.90
26537;DHT22;14204;51.262;5.488;2022-10-22T00:31:56;14.20;99.90
26537;DHT22;14204;51.262;5.488;2022-10-22T00:34:23;14.30;99.90
26537;DHT22;14204;51.262;5.488;2022-10-22T00:36:49;14.30;99.90
26537;DHT22;14204;51.262;5.488;2022-10-22T00:39:17;14.30;99.90
26537;DHT22;14204;51.262;5.488;2022-10-22T00:41:44;14.20;99.90
26537;DHT22;14204;51.262;5.488;2022-10-22T00:47:14;14.20;99.90
26537;DHT22;14204;51.262;5.488;2022-10-22T00:49:42;14.30;99.90
26537;DHT22;14204;51.262;5.488;2022-10-22T00:52:08;14.30;99.90
26537;DHT22;14204;51.262;5.488;2022-10-22T00:54:35;14.40;99.90
26537;DHT22;14204;51.262;5.488;2022-10-22T00:57:02;14.40;99.90
26537;DHT22;14204;51.262;5.488;2022-10-22T00:59:28;14.30;99.90
26537;DHT22;14204;51.262;5.488;2022-10-22T01:01:54;14.30;99.90
26537;DHT22;14204;51.262;5.488;2022-10-22T01:04:20;14.30;99.90
26537;DHT22;14204;51.262;5.488;2022-10-22T01:06:45;14.20;99.90
26537;DHT22;14204;51.262;5.488;2022-10-22T01:09:34;14.20;99.90
26537;DHT22;14204;51.262;5.488;2022-10-22T01:12:20;14.20;99.90
26537;DHT22;14204;51.262;5.488;2022-10-22T01:17:52;14.20;99.90
26537;DHT22;14204;51.262;5.488;2022-10-22T01:21:25;14.20;99.90
26537;DHT22;14204;51.262;5.488;2022-10-22T01:31:30;14.10;99.90
26537;DHT22;14204;51.262;5.488;2022-10-22T01:33:58;14.10;99.90
26537;DHT22;14204;51.262;5.488;2022-10-22T01:36:25;14.20;99.90
26537;DHT22;14204;51.262;5.488;2022-10-22T01:38:52;14.20;99.90
26537;DHT22;14204;51.262;5.488;2022-10-22T01:41:18;14.20;99.90
26537;DHT22;14204;51.262;5.488;2022-10-22T01:43:44;14.20;99.90
26537;DHT22;14204;51.262;5.488;2022-10-22T01:46:10;14.10;99.90
26537;DHT22;14204;51.262;5.488;2022-10-22T01:49:00;14.10;99.90
26537;DHT22;14204;51.262;5.488;2022-10-22T01:51:48;14.10;99.90
26537;DHT22;14204;51.262;5.488;2022-10-22T01:59:32;14.10;99.90
26537;DHT22;14204;51.262;5.488;2022-10-22T02:02:31;14.10;99.90
26537;DHT22;14204;51.262;5.488;2022-10-22T02:05:06;14.10;99.90
26537;DHT22;14204;51.262;5.488;2022-10-22T02:07:43;14.10;99.90
26537;DHT22;14204;51.262;5.488;2022-10-22T02:10:11;14.10;99.90
26537;DHT22;14204;51.262;5.488;2022-10-22T02:12:39;14.10;99.90
26537;DHT22;14204;51.262;5.488;2022-10-22T02:15:07;14.10;99.90
26537;DHT22;14204;51.262;5.488;2022-10-22T02:17:36;14.00;99.90
26537;DHT22;14204;51.262;5.488;2022-10-22T02:20:07;14.00;99.90
26537;DHT22;14204;51.262;5.488;2022-10-22T02:22:34;14.00;99.90
26537;DHT22;14204;51.262;5.488;2022-10-22T02:25:02;14.00;99.90
26537;DHT22;14204;51.262;5.488;2022-10-22T02:27:44;14.00;99.90
26537;DHT22;14204;51.262;5.488;2022-10-22T02:30:14;14.00;99.90
26537;DHT22;14204;51.262;5.488;2022-10-22T02:32:42;14.00;99.90
26537;DHT22;14204;51.262;5.488;2022-10-22T02:35:12;14.00;99.90
26537;DHT22;14204;51.262;5.488;2022-10-22T02:37:38;14.00;99.90
26537;DHT22;14204;51.262;5.488;2022-10-22T02:40:04;14.10;99.90
26537;DHT22;14204;51.262;5.488;2022-10-22T02:42:31;14.10;99.90
26537;DHT22;14204;51.262;5.488;2022-10-22T02:44:57;14.10;99.90
26537;DHT22;14204;51.262;5.488;2022-10-22T02:47:23;14.10;99.90
26537;DHT22;14204;51.262;5.488;2022-10-22T02:49:48;14.10;99.90
26537;DHT22;14204;51.262;5.488;2022-10-22T02:52:14;14.10;99.90
26537;DHT22;14204;51.262;5.488;2022-10-22T02:54:39;14.20;99.90
26537;DHT22;14204;51.262;5.488;2022-10-22T02:57:05;14.20;99.90
26537;DHT22;14204;51.262;5.488;2022-10-22T02:59:31;14.20;99.90
26537;DHT22;14204;51.262;5.488;2022-10-22T03:01:56;14.20;99.90
26537;DHT22;14204;51.262;5.488;2022-10-22T03:04:22;14.20;99.90
26537;DHT22;14204;51.262;5.488;2022-10-22T03:06:47;14.20;99.90
26537;DHT22;14204;51.262;5.488;2022-10-22T03:09:13;14.20;99.90
26537;DHT22;14204;51.262;5.488;2022-10-22T03:11:39;14.20;99.90
26537;DHT22;14204;51.262;5.488;2022-10-22T03:14:05;14.20;99.90
26537;DHT22;14204;51.262;5.488;2022-10-22T03:16:30;14.20;99.90
26537;DHT22;14204;51.262;5.488;2022-10-22T03:18:56;14.20;99.90
26537;DHT22;14204;51.262;5.488;2022-10-22T03:21:39;14.20;99.90
26537;DHT22;14204;51.262;5.488;2022-10-22T03:24:09;14.30;99.90
26537;DHT22;14204;51.262;5.488;2022-10-22T03:26:37;14.30;99.90
26537;DHT22;14204;51.262;5.488;2022-10-22T03:29:03;14.30;99.90
26537;DHT22;14204;51.262;5.488;2022-10-22T03:31:29;14.30;99.90
26537;DHT22;14204;51.262;5.488;2022-10-22T03:33:55;14.30;99.90
26537;DHT22;14204;51.262;5.488;2022-10-22T03:36:21;14.40;99.90
26537;DHT22;14204;51.262;5.488;2022-10-22T03:38:46;14.40;99.90
26537;DHT22;14204;51.262;5.488;2022-10-22T03:41:12;14.40;99.90
26537;DHT22;14204;51.262;5.488;2022-10-22T03:43:38;14.40;99.90
26537;DHT22;14204;51.262;5.488;2022-10-22T03:46:05;14.40;99.90
26537;DHT22;14204;51.262;5.488;2022-10-22T03:48:31;14.40;99.90
26537;DHT22;14204;51.262;5.488;2022-10-22T03:50:56;14.40;99.90
26537;DHT22;14204;51.262;5.488;2022-10-22T03:53:22;14.40;99.90
26537;DHT22;14204;51.262;5.488;2022-10-22T03:55:47;14.50;99.90
26537;DHT22;14204;51.262;5.488;2022-10-22T03:58:13;14.40;99.90
26537;DHT22;14204;51.262;5.488;2022-10-22T04:00:39;14.40;99.90
26537;DHT22;14204;51.262;5.488;2022-10-22T04:03:04;14.50;99.90
26537;DHT22;14204;51.262;5.488;2022-10-22T04:05:32;14.50;99.90
26537;DHT22;14204;51.262;5.488;2022-10-22T04:07:58;14.50;99.90
26537;DHT22;14204;51.262;5.488;2022-10-22T04:10:24;14.50;99.90
26537;DHT22;14204;51.262;5.488;2022-10-22T04:12:49;14.60;99.90
26537;DHT22;14204;51.262;5.488;2022-10-22T04:15:15;14.50;99.90
26537;DHT22;14204;51.262;5.488;2022-10-22T04:17:41;14.50;99.90
26537;DHT22;14204;51.262;5.488;2022-10-22T04:20:07;14.60;99.90
26537;DHT22;14204;51.262;5.488;2022-10-22T04:22:34;14.60;99.90
26537;DHT22;14204;51.262;5.488;2022-10-22T04:25:00;14.60;99.90
26537;DHT22;14204;51.262;5.488;2022-10-22T04:27:29;14.50;99.90
26537;DHT22;14204;51.262;5.488;2022-10-22T04:29:55;14.60;99.90
26537;DHT22;14204;51.262;5.488;2022-10-22T04:32:21;14.60;99.90
26537;DHT22;14204;51.262;5.488;2022-10-22T04:34:46;14.60;99.90
26537;DHT22;14204;51.262;5.488;2022-10-22T04:37:12;14.60;99.90
26537;DHT22;14204;51.262;5.488;2022-10-22T04:39:37;14.60;99.90
26537;DHT22;14204;51.262;5.488;2022-10-22T04:42:03;14.70;99.90
26537;DHT22;14204;51.262;5.488;2022-10-22T04:44:29;14.60;99.90
26537;DHT22;14204;51.262;5.488;2022-10-22T04:46:54;14.60;99.90
26537;DHT22;14204;51.262;5.488;2022-10-22T04:49:20;14.60;99.90
26537;DHT22;14204;51.262;5.488;2022-10-22T04:51:45;14.70;99.90
26537;DHT22;14204;51.262;5.488;2022-10-22T04:54:11;14.70;99.90
26537;DHT22;14204;51.262;5.488;2022-10-22T04:56:37;14.60;99.90
26537;DHT22;14204;51.262;5.488;2022-10-22T04:59:05;14.60;99.90
26537;DHT22;14204;51.262;5.488;2022-10-22T05:01:37;14.60;99.90
26537;DHT22;14204;51.262;5.488;2022-10-22T05:04:04;14.60;99.90
26537;DHT22;14204;51.262;5.488;2022-10-22T05:06:32;14.70;99.90
26537;DHT22;14204;51.262;5.488;2022-10-22T05:09:32;14.70;99.90
26537;DHT22;14204;51.262;5.488;2022-10-22T05:11:51;14.70;99.90
26537;DHT22;14204;51.262;5.488;2022-10-22T05:14:22;14.60;99.90
26537;DHT22;14204;51.262;5.488;2022-10-22T05:16:48;14.60;99.90
26537;DHT22;14204;51.262;5.488;2022-10-22T05:19:23;14.70;99.90
26537;DHT22;14204;51.262;5.488;2022-10-22T05:21:50;14.70;99.90
26537;DHT22;14204;51.262;5.488;2022-10-22T05:24:16;14.70;99.90
26537;DHT22;14204;51.262;5.488;2022-10-22T05:26:42;14.80;99.90
26537;DHT22;14204;51.262;5.488;2022-10-22T05:29:07;14.80;99.90
26537;DHT22;14204;51.262;5.488;2022-10-22T05:31:33;14.80;99.90
26537;DHT22;14204;51.262;5.488;2022-10-22T05:33:59;14.80;99.90
26537;DHT22;14204;51.262;5.488;2022-10-22T05:36:25;14.80;99.90
26537;DHT22;14204;51.262;5.488;2022-10-22T05:38:50;14.80;99.90
26537;DHT22;14204;51.262;5.488;2022-10-22T05:41:18;14.80;99.90
26537;DHT22;14204;51.262;5.488;2022-10-22T05:43:44;14.80;99.90
26537;DHT22;14204;51.262;5.488;2022-10-22T05:46:13;14.80;99.90
26537;DHT22;14204;51.262;5.488;2022-10-22T05:48:39;14.80;99.90
26537;DHT22;14204;51.262;5.488;2022-10-22T05:51:07;14.80;99.90
26537;DHT22;14204;51.262;5.488;2022-10-22T05:53:35;14.90;99.90
26537;DHT22;14204;51.262;5.488;2022-10-22T05:56:03;14.80;99.90
26537;DHT22;14204;51.262;5.488;2022-10-22T05:58:29;14.90;99.90
26537;DHT22;14204;51.262;5.488;2022-10-22T06:01:22;14.80;99.90
26537;DHT22;14204;51.262;5.488;2022-10-22T06:03:46;14.80;99.90
26537;DHT22;14204;51.262;5.488;2022-10-22T06:06:26;14.80;99.90
26537;DHT22;14204;51.262;5.488;2022-10-22T06:08:54;14.80;99.90
26537;DHT22;14204;51.262;5.488;2022-10-22T06:11:21;14.80;99.90
26537;DHT22;14204;51.262;5.488;2022-10-22T06:13:48;14.80;99.90
26537;DHT22;14204;51.262;5.488;2022-10-22T06:16:14;14.80;99.90
26537;DHT22;14204;51.262;5.488;2022-10-22T06:18:40;14.80;99.90
26537;DHT22;14204;51.262;5.488;2022-10-22T06:21:10;14.80;99.90
26537;DHT22;14204;51.262;5.488;2022-10-22T06:23:37;14.90;99.90
26537;DHT22;14204;51.262;5.488;2022-10-22T06:26:03;14.90;99.90
26537;DHT22;14204;51.262;5.488;2022-10-22T06:28:30;15.00;99.90
26537;DHT22;14204;51.262;5.488;2022-10-22T06:30:57;15.00;99.90
26537;DHT22;14204;51.262;5.488;2022-10-22T06:33:23;15.00;99.90
26537;DHT22;14204;51.262;5.488;2022-10-22T06:35:49;15.10;99.90
26537;DHT22;14204;51.262;5.488;2022-10-22T06:38:14;15.00;99.90
26537;DHT22;14204;51.262;5.488;2022-10-22T06:40:40;15.10;99.90
26537;DHT22;14204;51.262;5.488;2022-10-22T06:43:08;15.10;99.90
26537;DHT22;14204;51.262;5.488;2022-10-22T06:45:34;15.10;99.90
26537;DHT22;14204;51.262;5.488;2022-10-22T06:47:59;15.10;99.90
26537;DHT22;14204;51.262;5.488;2022-10-22T06:50:25;15.10;99.90
26537;DHT22;14204;51.262;5.488;2022-10-22T06:52:51;15.10;99.90
26537;DHT22;14204;51.262;5.488;2022-10-22T06:55:16;15.20;99.90
26537;DHT22;14204;51.262;5.488;2022-10-22T06:57:42;15.10;99.90
26537;DHT22;14204;51.262;5.488;2022-10-22T07:00:08;15.20;99.90
26537;DHT22;14204;51.262;5.488;2022-10-22T07:02:34;15.30;99.90
26537;DHT22;14204;51.262;5.488;2022-10-22T07:04:59;15.30;99.90
26537;DHT22;14204;51.262;5.488;2022-10-22T07:07:25;15.30;99.90
26537;DHT22;14204;51.262;5.488;2022-10-22T07:09:50;15.40;99.90
26537;DHT22;14204;51.262;5.488;2022-10-22T07:12:16;15.40;99.90
26537;DHT22;14204;51.262;5.488;2022-10-22T07:14:42;15.40;99.90
26537;DHT22;14204;51.262;5.488;2022-10-22T07:17:08;15.40;99.90
26537;DHT22;14204;51.262;5.488;2022-10-22T07:19:34;15.40;99.90
26537;DHT22;14204;51.262;5.488;2022-10-22T07:21:59;15.50;99.90
26537;DHT22;14204;51.262;5.488;2022-10-22T07:24:25;15.40;99.90
26537;DHT22;14204;51.262;5.488;2022-10-22T07:26:51;15.50;99.90
26537;DHT22;14204;51.262;5.488;2022-10-22T07:29:16;15.50;99.90
26537;DHT22;14204;51.262;5.488;2022-10-22T07:31:42;15.50;99.90
26537;DHT22;14204;51.262;5.488;2022-10-22T07:34:08;15.50;99.90
26537;DHT22;14204;51.262;5.488;2022-10-22T07:36:34;15.50;99.90
26537;DHT22;14204;51.262;5.488;2022-10-22T07:39:00;15.60;99.90
26537;DHT22;14204;51.262;5.488;2022-10-22T07:41:27;15.60;99.90
26537;DHT22;14204;51.262;5.488;2022-10-22T07:43:54;15.60;99.90
26537;DHT22;14204;51.262;5.488;2022-10-22T07:46:20;15.70;99.90
26537;DHT22;14204;51.262;5.488;2022-10-22T07:48:45;15.70;99.90
26537;DHT22;14204;51.262;5.488;2022-10-22T07:51:11;15.70;99.90
26537;DHT22;14204;51.262;5.488;2022-10-22T07:53:37;15.70;99.90
26537;DHT22;14204;51.262;5.488;2022-10-22T07:56:03;15.70;99.90
26537;DHT22;14204;51.262;5.488;2022-10-22T07:58:29;15.80;99.90
26537;DHT22;14204;51.262;5.488;2022-10-22T08:00:56;15.80;99.90
26537;DHT22;14204;51.262;5.488;2022-10-22T08:03:22;15.90;99.90
26537;DHT22;14204;51.262;5.488;2022-10-22T08:05:47;15.90;99.90
26537;DHT22;14204;51.262;5.488;2022-10-22T08:08:14;15.90;99.90
26537;DHT22;14204;51.262;5.488;2022-10-22T08:10:40;16.00;99.90
26537;DHT22;14204;51.262;5.488;2022-10-22T08:13:07;16.00;99.90
26537;DHT22;14204;51.262;5.488;2022-10-22T08:15:32;16.10;99.90
26537;DHT22;14204;51.262;5.488;2022-10-22T08:17:58;16.10;99.90
26537;DHT22;14204;51.262;5.488;2022-10-22T08:20:24;16.10;99.90
26537;DHT22;14204;51.262;5.488;2022-10-22T08:22:49;16.20;99.90
26537;DHT22;14204;51.262;5.488;2022-10-22T08:25:15;16.20;99.90
26537;DHT22;14204;51.262;5.488;2022-10-22T08:27:43;16.20;99.90
26537;DHT22;14204;51.262;5.488;2022-10-22T08:30:09;16.20;99.90
26537;DHT22;14204;51.262;5.488;2022-10-22T08:32:34;16.20;99.90
26537;DHT22;14204;51.262;5.488;2022-10-22T08:35:00;16.20;99.90
26537;DHT22;14204;51.262;5.488;2022-10-22T08:37:26;16.20;99.90
26537;DHT22;14204;51.262;5.488;2022-10-22T08:39:52;16.30;99.90
26537;DHT22;14204;51.262;5.488;2022-10-22T08:45:10;16.40;99.90
26537;DHT22;14204;51.262;5.488;2022-10-22T08:50:11;16.60;99.90
26537;DHT22;14204;51.262;5.488;2022-10-22T08:52:43;16.80;99.90
26537;DHT22;14204;51.262;5.488;2022-10-22T08:55:14;16.80;99.90
26537;DHT22;14204;51.262;5.488;2022-10-22T09:00:31;16.90;99.90
26537;DHT22;14204;51.262;5.488;2022-10-22T09:05:58;17.00;99.90
26537;DHT22;14204;51.262;5.488;2022-10-22T09:08:26;17.00;99.90
26537;DHT22;14204;51.262;5.488;2022-10-22T09:13:44;17.00;99.90
26537;DHT22;14204;51.262;5.488;2022-10-22T09:16:18;17.10;99.90
26537;DHT22;14204;51.262;5.488;2022-10-22T09:19:08;17.10;99.90
26537;DHT22;14204;51.262;5.488;2022-10-22T09:21:55;17.10;99.90
26537;DHT22;14204;51.262;5.488;2022-10-22T09:24:30;17.20;99.90
26537;DHT22;14204;51.262;5.488;2022-10-22T09:26:58;17.20;99.90
26537;DHT22;14204;51.262;5.488;2022-10-22T09:29:30;17.30;99.90
26537;DHT22;14204;51.262;5.488;2022-10-22T09:31:56;17.30;99.90
26537;DHT22;14204;51.262;5.488;2022-10-22T09:34:22;17.40;99.90
26537;DHT22;14204;51.262;5.488;2022-10-22T09:36:59;17.40;99.90
26537;DHT22;14204;51.262;5.488;2022-10-22T09:39:28;17.40;99.90
26537;DHT22;14204;51.262;5.488;2022-10-22T09:41:55;17.50;99.90
26537;DHT22;14204;51.262;5.488;2022-10-22T09:44:21;17.50;99.90
26537;DHT22;14204;51.262;5.488;2022-10-22T09:46:47;17.50;99.90
26537;DHT22;14204;51.262;5.488;2022-10-22T09:49:15;17.50;99.90
26537;DHT22;14204;51.262;5.488;2022-10-22T09:51:56;17.50;99.90
26537;DHT22;14204;51.262;5.488;2022-10-22T09:59:40;17.60;99.90
26537;DHT22;14204;51.262;5.488;2022-10-22T10:02:21;17.70;99.90
26537;DHT22;14204;51.262;5.488;2022-10-22T10:04:51;17.70;99.90
26537;DHT22;14204;51.262;5.488;2022-10-22T10:07:25;17.80;99.90
26537;DHT22;14204;51.262;5.488;2022-10-22T10:09:52;17.80;99.90
26537;DHT22;14204;51.262;5.488;2022-10-22T10:15:02;17.80;99.90
26537;DHT22;14204;51.262;5.488;2022-10-22T10:17:45;17.90;99.90
26537;DHT22;14204;51.262;5.488;2022-10-22T10:23:20;17.90;99.90
26537;DHT22;14204;51.262;5.488;2022-10-22T10:26:24;18.00;99.90
26537;DHT22;14204;51.262;5.488;2022-10-22T10:37:24;18.20;99.90
26537;DHT22;14204;51.262;5.488;2022-10-22T10:56:50;18.30;99.90
26537;DHT22;14204;51.262;5.488;2022-10-22T11:07:19;18.40;99.90
26537;DHT22;14204;51.262;5.488;2022-10-22T11:09:53;18.50;99.90
26537;DHT22;14204;51.262;5.488;2022-10-22T11:12:26;18.60;99.90
26537;DHT22;14204;51.262;5.488;2022-10-22T11:17:52;18.50;99.90
26537;DHT22;14204;51.262;5.488;2022-10-22T11:20:32;18.60;99.90
26537;DHT22;14204;51.262;5.488;2022-10-22T11:23:15;18.50;99.90
26537;DHT22;14204;51.262;5.488;2022-10-22T11:25:46;18.60;99.90
26537;DHT22;14204;51.262;5.488;2022-10-22T11:28:33;18.70;99.90
26537;DHT22;14204;51.262;5.488;2022-10-22T11:31:12;18.60;99.90
26537;DHT22;14204;51.262;5.488;2022-10-22T11:33:50;18.60;99.90
26537;DHT22;14204;51.262;5.488;2022-10-22T11:36:20;18.50;99.90
26537;DHT22;14204;51.262;5.488;2022-10-22T11:38:47;18.50;99.90
26537;DHT22;14204;51.262;5.488;2022-10-22T11:41:16;18.50;99.90
26537;DHT22;14204;51.262;5.488;2022-10-22T11:44:04;18.50;99.90
26537;DHT22;14204;51.262;5.488;2022-10-22T11:46:52;18.50;99.90
26537;DHT22;14204;51.262;5.488;2022-10-22T11:49:25;18.50;99.90
26537;DHT22;14204;51.262;5.488;2022-10-22T11:52:12;18.40;99.90
26537;DHT22;14204;51.262;5.488;2022-10-22T11:54:46;18.60;99.90
26537;DHT22;14204;51.262;5.488;2022-10-22T11:59:50;19.00;99.90
26537;DHT22;14204;51.262;5.488;2022-10-22T12:02:42;18.90;99.90
26537;DHT22;14204;51.262;5.488;2022-10-22T12:08:05;18.80;99.90
26537;DHT22;14204;51.262;5.488;2022-10-22T12:16:27;19.10;99.90
26537;DHT22;14204;51.262;5.488;2022-10-22T12:19:03;19.00;99.90
26537;DHT22;14204;51.262;5.488;2022-10-22T12:21:32;19.00;99.90
26537;DHT22;14204;51.262;5.488;2022-10-22T12:23:59;19.00;99.90
26537;DHT22;14204;51.262;5.488;2022-10-22T12:26:28;19.00;99.90
26537;DHT22;14204;51.262;5.488;2022-10-22T12:29:02;19.00;99.90
26537;DHT22;14204;51.262;5.488;2022-10-22T12:31:35;19.00;99.90
26537;DHT22;14204;51.262;5.488;2022-10-22T12:34:01;19.00;99.90
26537;DHT22;14204;51.262;5.488;2022-10-22T12:36:32;19.00;99.90
26537;DHT22;14204;51.262;5.488;2022-10-22T12:39:00;19.00;99.90
26537;DHT22;14204;51.262;5.488;2022-10-22T12:41:33;19.00;99.90
26537;DHT22;14204;51.262;5.488;2022-10-22T12:44:01;19.00;99.90
26537;DHT22;14204;51.262;5.488;2022-10-22T12:46:30;18.90;99.90
26537;DHT22;14204;51.262;5.488;2022-10-22T12:48:59;18.90;99.90
26537;DHT22;14204;51.262;5.488;2022-10-22T12:51:26;18.90;99.90
26537;DHT22;14204;51.262;5.488;2022-10-22T12:53:58;19.10;99.90
26537;DHT22;14204;51.262;5.488;2022-10-22T12:56:28;19.20;99.90
26537;DHT22;14204;51.262;5.488;2022-10-22T12:58:58;19.30;99.90
26537;DHT22;14204;51.262;5.488;2022-10-22T13:01:26;19.50;99.90
26537;DHT22;14204;51.262;5.488;2022-10-22T13:04:17;19.40;99.90
26537;DHT22;14204;51.262;5.488;2022-10-22T13:06:46;19.40;99.90
26537;DHT22;14204;51.262;5.488;2022-10-22T13:09:23;19.40;99.90
26537;DHT22;14204;51.262;5.488;2022-10-22T13:12:09;19.40;99.90
26537;DHT22;14204;51.262;5.488;2022-10-22T13:14:41;19.40;99.90
26537;DHT22;14204;51.262;5.488;2022-10-22T13:17:17;19.40;99.90
26537;DHT22;14204;51.262;5.488;2022-10-22T13:22:59;19.30;99.90
26537;DHT22;14204;51.262;5.488;2022-10-22T13:25:32;19.30;99.90
26537;DHT22;14204;51.262;5.488;2022-10-22T13:27:59;19.30;99.90
26537;DHT22;14204;51.262;5.488;2022-10-22T13:30:31;19.30;99.90
26537;DHT22;14204;51.262;5.488;2022-10-22T13:33:58;19.30;99.90
26537;DHT22;14204;51.262;5.488;2022-10-22T13:35:53;19.30;99.90
26537;DHT22;14204;51.262;5.488;2022-10-22T13:38:21;19.30;99.90
26537;DHT22;14204;51.262;5.488;2022-10-22T13:40:47;19.30;99.90
26537;DHT22;14204;51.262;5.488;2022-10-22T13:43:15;19.20;99.90
26537;DHT22;14204;51.262;5.488;2022-10-22T13:45:41;19.20;99.90
26537;DHT22;14204;51.262;5.488;2022-10-22T13:48:12;19.20;99.90
26537;DHT22;14204;51.262;5.488;2022-10-22T13:50:39;19.30;99.90
26537;DHT22;14204;51.262;5.488;2022-10-22T13:53:05;19.30;99.90
26537;DHT22;14204;51.262;5.488;2022-10-22T13:55:35;19.30;99.90
26537;DHT22;14204;51.262;5.488;2022-10-22T13:58:11;19.30;99.90
26537;DHT22;14204;51.262;5.488;2022-10-22T14:00:40;19.30;99.90
26537;DHT22;14204;51.262;5.488;2022-10-22T14:03:09;19.30;99.90
26537;DHT22;14204;51.262;5.488;2022-10-22T14:05:36;19.30;99.90
26537;DHT22;14204;51.262;5.488;2022-10-22T14:08:02;19.30;99.90
26537;DHT22;14204;51.262;5.488;2022-10-22T14:10:28;19.30;99.90
26537;DHT22;14204;51.262;5.488;2022-10-22T14:12:53;19.20;99.90
26537;DHT22;14204;51.262;5.488;2022-10-22T14:15:21;19.20;99.90
26537;DHT22;14204;51.262;5.488;2022-10-22T14:18:00;19.20;99.90
26537;DHT22;14204;51.262;5.488;2022-10-22T14:20:28;19.20;99.90
26537;DHT22;14204;51.262;5.488;2022-10-22T14:22:56;19.20;99.90
26537;DHT22;14204;51.262;5.488;2022-10-22T14:25:25;19.20;99.90
26537;DHT22;14204;51.262;5.488;2022-10-22T14:27:51;19.20;99.90
26537;DHT22;14204;51.262;5.488;2022-10-22T14:30:19;19.30;99.90
26537;DHT22;14204;51.262;5.488;2022-10-22T14:32:45;19.40;99.90
26537;DHT22;14204;51.262;5.488;2022-10-22T14:35:13;19.40;99.90
26537;DHT22;14204;51.262;5.488;2022-10-22T14:37:40;19.30;99.90
26537;DHT22;14204;51.262;5.488;2022-10-22T14:40:07;19.30;99.90
26537;DHT22;14204;51.262;5.488;2022-10-22T14:42:38;19.30;99.90
26537;DHT22;14204;51.262;5.488;2022-10-22T14:45:05;19.20;99.90
26537;DHT22;14204;51.262;5.488;2022-10-22T14:47:32;19.20;99.90
26537;DHT22;14204;51.262;5.488;2022-10-22T14:49:57;19.20;99.90
26537;DHT22;14204;51.262;5.488;2022-10-22T14:52:23;19.10;99.90
26537;DHT22;14204;51.262;5.488;2022-10-22T14:54:49;19.00;99.90
26537;DHT22;14204;51.262;5.488;2022-10-22T14:57:14;19.00;99.90
26537;DHT22;14204;51.262;5.488;2022-10-22T14:59:41;19.10;99.90
26537;DHT22;14204;51.262;5.488;2022-10-22T15:02:11;19.00;99.90
26537;DHT22;14204;51.262;5.488;2022-10-22T15:04:38;19.00;99.90
26537;DHT22;14204;51.262;5.488;2022-10-22T15:07:03;19.00;99.90
26537;DHT22;14204;51.262;5.488;2022-10-22T15:09:29;19.00;99.90
26537;DHT22;14204;51.262;5.488;2022-10-22T15:11:55;19.00;99.90
26537;DHT22;14204;51.262;5.488;2022-10-22T15:14:21;18.90;99.90
26537;DHT22;14204;51.262;5.488;2022-10-22T15:16:46;18.90;99.90
26537;DHT22;14204;51.262;5.488;2022-10-22T15:19:12;18.90;99.90
26537;DHT22;14204;51.262;5.488;2022-10-22T15:21:38;18.90;99.90
26537;DHT22;14204;51.262;5.488;2022-10-22T15:24:04;18.80;99.90
26537;DHT22;14204;51.262;5.488;2022-10-22T15:26:29;18.80;99.90
26537;DHT22;14204;51.262;5.488;2022-10-22T15:28:55;18.70;99.90
26537;DHT22;14204;51.262;5.488;2022-10-22T15:31:45;18.60;99.90
26537;DHT22;14204;51.262;5.488;2022-10-22T15:34:12;18.60;99.90
26537;DHT22;14204;51.262;5.488;2022-10-22T15:36:38;18.50;99.90
26537;DHT22;14204;51.262;5.488;2022-10-22T15:39:07;18.50;99.90
26537;DHT22;14204;51.262;5.488;2022-10-22T15:41:34;18.50;99.90
26537;DHT22;14204;51.262;5.488;2022-10-22T15:43:59;18.50;99.90
26537;DHT22;14204;51.262;5.488;2022-10-22T15:46:25;18.40;99.90
26537;DHT22;14204;51.262;5.488;2022-10-22T15:48:53;18.40;99.90
26537;DHT22;14204;51.262;5.488;2022-10-22T15:51:19;18.30;99.90
26537;DHT22;14204;51.262;5.488;2022-10-22T15:53:53;18.20;99.90
26537;DHT22;14204;51.262;5.488;2022-10-22T15:56:19;18.20;99.90
26537;DHT22;14204;51.262;5.488;2022-10-22T15:58:44;18.20;99.90
26537;DHT22;14204;51.262;5.488;2022-10-22T16:01:11;18.10;99.90
26537;DHT22;14204;51.262;5.488;2022-10-22T16:03:37;18.10;99.90
26537;DHT22;14204;51.262;5.488;2022-10-22T16:06:05;18.10;99.90
26537;DHT22;14204;51.262;5.488;2022-10-22T16:08:32;18.00;99.90
26537;DHT22;14204;51.262;5.488;2022-10-22T16:10:57;18.00;99.90
26537;DHT22;14204;51.262;5.488;2022-10-22T16:13:24;17.90;99.90
26537;DHT22;14204;51.262;5.488;2022-10-22T16:15:51;18.00;99.90
26537;DHT22;14204;51.262;5.488;2022-10-22T16:18:17;18.00;99.90
26537;DHT22;14204;51.262;5.488;2022-10-22T16:20:43;17.90;99.90
26537;DHT22;14204;51.262;5.488;2022-10-22T16:23:09;17.90;99.90
26537;DHT22;14204;51.262;5.488;2022-10-22T16:25:41;17.90;99.90
26537;DHT22;14204;51.262;5.488;2022-10-22T16:28:08;17.90;99.90
26537;DHT22;14204;51.262;5.488;2022-10-22T16:30:35;17.80;99.90
26537;DHT22;14204;51.262;5.488;2022-10-22T16:33:02;17.80;99.90
26537;DHT22;14204;51.262;5.488;2022-10-22T16:35:29;17.80;99.90
26537;DHT22;14204;51.262;5.488;2022-10-22T16:37:55;17.70;99.90
26537;DHT22;14204;51.262;5.488;2022-10-22T16:40:20;17.70;99.90
26537;DHT22;14204;51.262;5.488;2022-10-22T16:42:46;17.60;99.90
26537;DHT22;14204;51.262;5.488;2022-10-22T16:45:12;17.60;99.90
26537;DHT22;14204;51.262;5.488;2022-10-22T16:47:38;17.60;99.90
26537;DHT22;14204;51.262;5.488;2022-10-22T16:50:05;17.60;99.90
26537;DHT22;14204;51.262;5.488;2022-10-22T16:52:31;17.50;99.90
26537;DHT22;14204;51.262;5.488;2022-10-22T16:54:56;17.50;99.90
26537;DHT22;14204;51.262;5.488;2022-10-22T16:57:23;17.50;99.90
26537;DHT22;14204;51.262;5.488;2022-10-22T16:59:48;17.50;99.90
26537;DHT22;14204;51.262;5.488;2022-10-22T17:02:14;17.50;99.90
26537;DHT22;14204;51.262;5.488;2022-10-22T17:04:40;17.50;99.90
26537;DHT22;14204;51.262;5.488;2022-10-22T17:07:05;17.40;99.90
26537;DHT22;14204;51.262;5.488;2022-10-22T17:09:31;17.40;99.90
26537;DHT22;14204;51.262;5.488;2022-10-22T17:11:56;17.20;99.90
26537;DHT22;14204;51.262;5.488;2022-10-22T17:14:22;17.10;99.90